Time;durP1;ratioP1;P1;durP2;ratioP2;P2;SDS_P1;SDS_P2;PMS_P1;PMS_P2;Temp;Humidity;BMP_temperature;BMP_pressure;BME280_temperature;BME280_humidity;BME280_pressure;Samples;Min_cycle;Max_cycle;Signal;HPM_P1;HPM_P2
2022/05/18 00:00:35;;;;;;;10.13;6.40;;;;;;;18.21;75.69;99212.09;4956718;28;20519;-91
2022/05/18 00:03:11;;;;;;;8.75;6.07;;;;;;;18.22;75.83;99205.50;4944839;28;20031;-91
2022/05/18 00:05:38;;;;;;;10.73;6.45;;;;;;;18.18;75.12;99195.25;4944452;28;20041;-91
2022/05/18 00:08:05;;;;;;;6.93;4.90;;;;;;;18.16;73.16;99197.50;4944224;28;20042;-91
2022/05/18 00:10:31;;;;;;;11.00;5.30;;;;;;;18.29;73.60;99200.38;4944449;28;20496;-91
2022/05/18 00:12:57;;;;;;;6.47;5.00;;;;;;;18.27;72.81;99191.72;4976160;28;20397;-91
2022/05/18 00:15:23;;;;;;;14.68;7.20;;;;;;;18.23;76.20;99191.56;4960127;28;20031;-92
2022/05/18 00:17:50;;;;;;;11.48;6.07;;;;;;;18.17;75.95;99190.91;4944343;28;20185;-91
2022/05/18 00:20:18;;;;;;;11.30;6.07;;;;;;;18.07;76.90;99171.38;4960143;28;20039;-92
2022/05/18 00:22:51;;;;;;;11.13;6.30;;;;;;;18.12;76.91;99185.66;4959990;28;20037;-91
2022/05/18 00:25:18;;;;;;;9.55;5.70;;;;;;;18.21;74.90;99182.91;4944456;28;20030;-92
2022/05/18 00:27:43;;;;;;;8.45;5.32;;;;;;;18.29;74.59;99186.75;4944076;28;20038;-92
2022/05/18 00:30:15;;;;;;;9.85;6.95;;;;;;;18.12;77.65;99177.47;4960277;28;20544;-91
2022/05/18 00:32:41;;;;;;;;;;;;;;;18.20;77.80;99185.94;4960401;28;20481;-91
2022/05/18 00:35:09;;;;;;;13.85;7.78;;;;;;;18.05;76.57;99160.00;4960190;28;19961;-91
2022/05/18 00:37:34;;;;;;;11.48;7.85;;;;;;;18.05;77.85;99160.00;4944201;28;20504;-91
2022/05/18 00:40:00;;;;;;;14.23;8.07;;;;;;;18.06;76.65;99162.41;4959562;28;20066;-91
2022/05/18 00:42:26;;;;;;;14.63;9.10;;;;;;;17.98;77.70;99149.59;4959716;28;20039;-91
2022/05/18 00:44:53;;;;;;;12.02;7.93;;;;;;;17.97;76.69;99146.09;4943943;28;20039;-91
2022/05/18 00:47:20;;;;;;;10.93;8.43;;;;;;;18.05;77.83;99151.84;4959703;28;20062;-91
2022/05/18 00:49:59;;;;;;;15.75;10.50;;;;;;;17.92;77.77;99129.91;4943627;28;20476;-91
2022/05/18 00:52:32;;;;;;;16.02;11.18;;;;;;;17.84;77.34;99116.31;4958694;28;20023;-91
2022/05/18 00:54:59;;;;;;;19.48;11.98;;;;;;;17.79;78.21;99111.78;4943631;28;20118;-91
2022/05/18 00:57:28;;;;;;;13.02;11.48;;;;;;;17.80;78.08;99109.88;4959716;28;20093;-91
2022/05/18 01:00:09;;;;;;;15.68;11.30;;;;;;;17.83;78.01;99103.81;4959632;28;20043;-91
2022/05/18 01:02:36;;;;;;;15.77;11.55;;;;;;;17.86;78.67;99095.78;4943679;28;20485;-91
2022/05/18 01:05:03;;;;;;;13.50;8.05;;;;;;;17.75;77.29;99070.78;4943194;28;20478;-91
2022/05/18 01:07:32;;;;;;;10.75;7.97;;;;;;;17.69;76.66;99054.94;4928163;28;20026;-91
2022/05/18 01:09:58;;;;;;;13.85;6.60;;;;;;;17.82;75.93;99053.16;4943862;28;20122;-91
2022/05/18 01:12:24;;;;;;;13.60;6.95;;;;;;;17.87;74.71;99042.91;4927433;28;20039;-91
2022/05/18 01:14:49;;;;;;;12.88;6.93;;;;;;;18.00;75.67;99060.19;4943293;28;20038;-91
2022/05/18 01:17:18;;;;;;;9.88;7.38;;;;;;;17.80;76.57;99012.63;4975007;28;20026;-91
2022/05/18 01:19:50;;;;;;;8.23;7.30;;;;;;;17.88;76.66;99027.38;4943318;28;20026;-91
2022/05/18 01:22:25;;;;;;;11.82;7.57;;;;;;;18.06;76.55;99041.75;4927877;28;20127;-90
2022/05/18 01:25:08;;;;;;;11.50;6.72;;;;;;;17.78;74.96;99039.38;4974926;28;20191;-91
2022/05/18 01:27:34;;;;;;;7.75;5.72;;;;;;;17.90;74.89;99038.75;4944698;28;20093;-91
2022/05/18 01:30:00;;;;;;;7.88;5.82;;;;;;;18.03;74.83;99036.94;4959041;28;20481;-91
2022/05/18 01:32:26;;;;;;;9.80;5.85;;;;;;;18.02;75.06;99014.34;4927348;28;20125;-92
2022/05/18 01:34:54;;;;;;;7.07;5.40;;;;;;;18.12;75.11;99030.31;4927294;28;20022;-91
2022/05/18 01:37:20;;;;;;;12.25;6.25;;;;;;;18.03;75.16;98999.56;4958899;28;20037;-91
2022/05/18 01:39:53;;;;;;;11.15;7.00;;;;;;;18.16;76.82;99014.13;4942806;28;20105;-92
2022/05/18 01:42:29;;;;;;;7.25;6.55;;;;;;;17.97;76.73;98981.81;4958922;28;20030;-91
2022/05/18 01:44:55;;;;;;;10.48;6.07;;;;;;;17.90;76.65;98987.00;4927815;28;20027;-91
2022/05/18 01:47:20;;;;;;;8.52;7.00;;;;;;;18.02;76.31;98992.53;4926546;28;20039;-91
2022/05/18 01:49:46;;;;;;;8.30;5.60;;;;;;;17.93;75.69;98984.41;4943179;28;20038;-91
2022/05/18 01:52:12;;;;;;;12.05;6.72;;;;;;;18.06;77.21;99007.13;4927258;28;20054;-94
2022/05/18 01:54:43;;;;;;;8.95;6.20;;;;;;;17.96;77.47;98972.06;4926994;28;20022;-92
2022/05/18 01:57:09;;;;;;;6.82;6.10;;;;;;;17.95;76.47;98963.09;4942929;28;20038;-92
2022/05/18 01:59:35;;;;;;;8.68;6.80;;;;;;;17.87;76.45;98961.22;4927132;28;20418;-91
2022/05/18 02:02:01;;;;;;;8.55;6.13;;;;;;;17.94;75.87;98957.97;4942734;28;20121;-91
2022/05/18 02:04:26;;;;;;;8.73;6.13;;;;;;;18.04;75.42;98960.31;4958600;28;20050;-93
2022/05/18 02:06:53;;;;;;;9.15;5.55;;;;;;;17.98;74.63;98959.69;4942116;28;20034;-92
2022/05/18 02:09:20;;;;;;;7.90;5.60;;;;;;;18.00;74.14;98970.28;4942180;28;20073;-93
2022/05/18 02:11:46;;;;;;;7.68;5.68;;;;;;;17.91;74.58;98961.38;4958642;28;20496;-92
2022/05/18 02:14:12;;;;;;;6.53;5.68;;;;;;;17.92;74.98;98971.13;4957677;28;20054;-92
2022/05/18 02:16:38;;;;;;;9.45;6.07;;;;;;;17.87;75.13;98965.88;4958591;28;20100;-92
2022/05/18 02:19:04;;;;;;;9.65;7.32;;;;;;;17.84;77.34;98994.53;4942093;28;20034;-92
2022/05/18 02:21:31;;;;;;;9.95;7.60;;;;;;;17.64;77.38;98989.75;4941852;28;20046;-92
2022/05/18 02:23:56;;;;;;;8.10;7.28;;;;;;;17.64;76.04;98987.03;4957092;28;20086;-93
2022/05/18 02:26:22;;;;;;;10.25;8.05;;;;;;;17.48;77.27;98976.69;4941644;28;20066;-92
2022/05/18 02:28:48;;;;;;;9.10;8.18;;;;;;;17.61;77.10;98991.22;4941765;28;20031;-92
2022/05/18 02:31:15;;;;;;;12.65;8.75;;;;;;;17.46;77.54;98967.25;4957972;28;20031;-91
2022/05/18 02:33:43;;;;;;;11.43;9.00;;;;;;;17.56;78.02;98984.03;4957651;28;20022;-91
2022/05/18 02:36:10;;;;;;;9.52;8.10;;;;;;;17.55;77.54;98978.91;4957619;28;20485;-92
2022/05/18 02:38:36;;;;;;;10.50;9.32;;;;;;;17.61;77.81;98987.69;4941815;28;20034;-93
2022/05/18 02:41:02;;;;;;;12.15;8.88;;;;;;;17.60;77.94;98981.47;4957125;28;20057;-91
2022/05/18 02:43:28;;;;;;;14.18;10.00;;;;;;;17.65;78.29;98989.44;4941480;28;20030;-91
2022/05/18 02:46:14;;;;;;;11.48;9.27;;;;;;;17.60;78.37;98995.06;4957847;28;20038;-92
2022/05/18 02:48:40;;;;;;;10.27;8.52;;;;;;;17.54;78.31;98985.47;4941296;28;20031;-91
2022/05/18 02:51:06;;;;;;;11.65;10.20;;;;;;;17.33;80.37;98979.91;4941597;28;20027;-91
2022/05/18 02:53:32;;;;;;;9.85;8.77;;;;;;;17.35;79.68;98972.22;4941551;28;20035;-91
2022/05/18 02:56:07;;;;;;;10.25;8.40;;;;;;;17.40;79.33;98987.59;4941560;28;20034;-91
2022/05/18 02:58:39;;;;;;;15.52;8.48;;;;;;;17.30;79.74;98986.78;4957114;28;20026;-91
2022/05/18 03:01:08;;;;;;;11.68;8.65;;;;;;;17.36;79.41;98995.59;4956645;28;20047;-91
2022/05/18 03:03:35;;;;;;;9.45;8.27;;;;;;;17.29;79.25;98976.25;4956183;28;20043;-91
2022/05/18 03:06:03;;;;;;;10.30;7.53;;;;;;;17.29;79.22;98998.81;4957244;28;20031;-92
2022/05/18 03:08:29;;;;;;;12.15;8.20;;;;;;;17.27;79.46;98989.38;4941688;28;20034;-91
2022/05/18 03:10:55;;;;;;;11.75;9.00;;;;;;;17.33;79.44;99005.22;4957215;28;20030;-91
2022/05/18 03:13:20;;;;;;;14.80;8.95;;;;;;;17.17;79.43;98985.84;4941064;28;20093;-91
2022/05/18 03:15:47;;;;;;;17.20;9.68;;;;;;;17.27;79.33;99001.06;4957324;28;20038;-91
2022/05/18 03:18:14;;;;;;;11.30;8.70;;;;;;;17.31;80.17;99012.09;4957487;28;20026;-91
2022/05/18 03:23:36;;;;;;;11.90;9.40;;;;;;;17.25;79.71;99011.47;4952441;28;20174;-93
2022/05/18 03:26:11;;;;;;;14.93;9.98;;;;;;;17.34;80.36;99025.84;4940773;28;20043;-91
2022/05/18 03:28:38;;;;;;;11.00;9.52;;;;;;;17.41;79.34;99017.22;4973942;28;20034;-90
2022/05/18 03:31:05;;;;;;;10.90;9.27;;;;;;;17.47;79.08;99018.66;4956372;28;20042;-90
2022/05/18 03:33:30;;;;;;;11.75;9.20;;;;;;;17.51;78.25;99024.22;4940971;28;20401;-90
2022/05/18 03:35:56;;;;;;;10.82;9.50;;;;;;;17.49;79.25;99021.84;4940324;28;20187;-90
2022/05/18 03:38:21;;;;;;;14.05;9.68;;;;;;;17.48;78.52;99031.13;4956920;28;20056;-90
2022/05/18 03:44:38;;;;;;;23.15;10.77;;;;;;;17.46;78.51;99027.91;4921799;28;20042;-89
2022/05/18 03:47:04;;;;;;;13.90;10.65;;;;;;;17.50;79.01;99047.13;4943481;28;20472;-89
2022/05/18 03:49:31;;;;;;;14.40;10.32;;;;;;;17.45;78.61;99025.50;4944413;28;20145;-90
2022/05/18 03:51:58;;;;;;;14.18;11.95;;;;;;;17.54;78.15;99043.44;4959251;28;20034;-89
2022/05/18 03:54:24;;;;;;;18.45;12.55;;;;;;;17.48;78.02;99041.22;4975581;28;20034;-89
2022/05/18 03:56:50;;;;;;;19.75;12.90;;;;;;;17.48;78.68;99055.63;4943990;28;20507;-90
2022/05/18 03:59:16;;;;;;;23.58;19.83;;;;;;;17.47;77.71;99050.47;4958920;28;20038;-90
2022/05/18 04:01:42;;;;;;;15.55;12.95;;;;;;;17.30;77.80;99041.22;4938150;28;20508;-92
2022/05/18 04:04:32;;;;;;;16.92;12.77;;;;;;;17.31;78.80;99063.81;4940981;28;20027;-91
2022/05/18 04:06:57;;;;;;;15.32;12.60;;;;;;;17.12;78.29;99043.16;4956890;28;20126;-91
2022/05/18 04:09:23;;;;;;;20.30;13.05;;;;;;;17.35;77.93;99051.94;4924494;28;20082;-90
2022/05/18 04:11:49;;;;;;;15.40;12.23;;;;;;;17.26;78.07;99040.25;4925845;28;20082;-90
2022/05/18 04:14:16;;;;;;;21.15;14.38;;;;;;;17.25;78.46;99043.31;4940819;28;20030;-90
2022/05/18 04:16:42;;;;;;;21.00;14.63;;;;;;;17.12;78.63;99026.84;4925475;28;20039;-91
2022/05/18 04:19:07;;;;;;;17.73;12.80;;;;;;;17.10;79.99;99045.41;4937344;29;20027;-90
2022/05/18 04:21:34;;;;;;;16.48;12.30;;;;;;;16.97;80.03;99035.44;4926136;29;20500;-91
2022/05/18 04:24:02;;;;;;;23.67;14.40;;;;;;;17.19;79.65;99050.84;4941117;28;20031;-92
2022/05/18 04:26:27;;;;;;;19.02;11.90;;;;;;;17.15;79.30;99039.00;4944402;28;20133;-90
2022/05/18 04:28:53;;;;;;;22.40;13.35;;;;;;;17.03;80.00;99041.53;4946322;28;20027;-92
2022/05/18 04:31:18;;;;;;;17.63;12.05;;;;;;;17.17;80.12;99061.22;4943006;28;20026;-90
2022/05/18 04:33:44;;;;;;;19.17;13.00;;;;;;;17.06;80.24;99044.44;4936999;28;20077;-90
2022/05/18 04:36:10;;;;;;;19.45;13.75;;;;;;;17.11;80.05;99068.75;4940401;28;20085;-91
2022/05/18 04:38:35;;;;;;;15.85;10.45;;;;;;;17.06;79.77;99057.25;4924510;28;20042;-89
2022/05/18 04:41:01;;;;;;;21.23;11.02;;;;;;;17.09;80.28;99062.81;4921144;29;20482;-90
2022/05/18 04:43:29;;;;;;;22.17;12.43;;;;;;;17.01;80.29;99041.84;4953465;28;20105;-89
2022/05/18 04:45:55;;;;;;;18.65;12.70;;;;;;;17.11;79.81;99057.88;4942555;28;20042;-89
2022/05/18 04:48:24;;;;;;;13.80;10.65;;;;;;;17.12;79.51;99045.06;4925457;29;20038;-91
2022/05/18 04:50:50;;;;;;;17.20;10.13;;;;;;;17.14;79.59;99051.81;4933933;28;20023;-89
2022/05/18 04:53:16;;;;;;;15.55;8.63;;;;;;;17.10;78.20;99041.84;4932791;28;20100;-90
2022/05/18 04:55:42;;;;;;;19.67;12.10;;;;;;;17.11;78.58;99040.75;4943919;28;20058;-89
2022/05/18 04:58:08;;;;;;;18.80;11.15;;;;;;;17.15;78.21;99052.59;4959801;28;20030;-90
2022/05/18 05:00:34;;;;;;;25.27;15.70;;;;;;;17.07;79.31;99046.03;4958774;28;20070;-91
2022/05/18 05:03:00;;;;;;;16.17;11.32;;;;;;;17.12;78.80;99039.63;4979145;28;20026;-89
2022/05/18 05:05:26;;;;;;;37.42;20.48;;;;;;;17.23;78.44;99040.13;4946438;28;20027;-88
2022/05/18 05:07:53;;;;;;;17.70;9.95;;;;;;;17.27;78.29;99066.34;4926095;28;20023;-90
2022/05/18 05:10:20;;;;;;;22.58;13.50;;;;;;;17.36;78.92;99063.63;4931788;28;20035;-95
2022/05/18 05:12:47;;;;;;;25.45;13.38;;;;;;;17.19;80.29;99052.75;4971479;28;20071;-95
2022/05/18 05:15:16;;;;;;;28.52;13.63;;;;;;;17.36;79.20;99047.31;4954625;28;20027;-95
2022/05/18 05:17:47;;;;;;;26.52;12.45;;;;;;;17.32;79.75;99040.91;4954821;28;20065;-96
2022/05/18 05:20:14;;;;;;;13.98;10.30;;;;;;;17.47;79.55;99055.94;4955327;28;20092;-95
2022/05/18 05:22:44;;;;;;;13.07;6.50;;;;;;;17.50;76.57;99055.31;4953036;28;20061;-96
2022/05/18 05:25:11;;;;;;;7.45;5.30;;;;;;;17.46;76.06;99040.72;4948198;28;20075;-95
2022/05/18 05:27:41;;;;;;;7.47;4.90;;;;;;;17.69;75.29;99058.47;4956224;28;20058;-95
2022/05/18 05:30:13;;;;;;;10.52;5.63;;;;;;;17.80;75.08;99069.81;4954899;28;20062;-94
2022/05/18 05:32:53;;;;;;;8.40;5.00;;;;;;;17.76;74.50;99042.44;4957306;28;20043;-96
2022/05/18 05:39:49;;;;;;;8.10;4.88;;;;;;;18.14;73.91;99073.59;5317467;23;20038;-95
2022/05/18 05:52:34;;;;;;;6.93;5.03;;;;;;;17.95;74.75;99076.69;5024458;28;20064;-95
2022/05/18 05:58:06;;;;;;;13.68;10.85;;;;;;;18.14;75.45;99068.94;4942964;29;20036;-94
2022/05/18 06:00:31;;;;;;;48.90;32.75;;;;;;;18.26;74.81;99075.63;4965659;28;20034;-92
2022/05/18 06:02:57;;;;;;;6.80;4.78;;;;;;;18.21;72.12;99064.91;4988387;28;20110;-93
2022/05/18 06:05:23;;;;;;;6.13;4.80;;;;;;;18.43;71.66;99091.09;4981836;28;20092;-91
2022/05/18 06:08:09;;;;;;;8.70;5.95;;;;;;;18.17;74.43;99060.09;4981177;28;20101;-93
2022/05/18 06:10:35;;;;;;;13.82;6.05;;;;;;;18.20;74.47;99079.66;4990758;28;20022;-91
2022/05/18 06:13:07;;;;;;;11.68;6.10;;;;;;;18.25;74.96;99090.41;4961340;28;20037;-90
2022/05/18 06:15:33;;;;;;;12.30;6.65;;;;;;;18.09;75.45;99071.03;4975059;28;20113;-90
2022/05/18 06:17:58;;;;;;;11.13;9.30;;;;;;;18.24;74.69;99075.97;4961715;28;20029;-95
2022/05/18 06:20:39;;;;;;;9.40;7.38;;;;;;;18.30;74.30;99098.38;4981157;28;20026;-93
2022/05/18 06:23:33;;;;;;;41.78;28.38;;;;;;;18.38;75.20;99101.06;4968205;28;20073;-94
2022/05/18 06:26:02;;;;;;;12.13;6.90;;;;;;;17.99;73.66;99066.75;4987724;28;20027;-93
2022/05/18 06:28:28;;;;;;;13.50;8.98;;;;;;;18.27;75.28;99093.59;5014670;28;20079;-92
2022/05/18 06:31:00;;;;;;;13.00;6.88;;;;;;;18.36;74.03;99111.53;4959779;28;20026;-95
2022/05/18 06:33:31;;;;;;;18.42;13.57;;;;;;;18.27;71.67;99134.47;4985855;28;20034;-94
2022/05/18 06:35:57;;;;;;;6.57;4.15;;;;;;;18.10;70.96;99138.84;4954668;28;20532;-91
2022/05/18 06:38:23;;;;;;;5.00;3.10;;;;;;;17.70;70.40;99139.03;4925624;28;20038;-91
2022/05/18 06:43:42;;;;;;;8.77;3.88;;;;;;;17.50;72.54;99153.28;4932649;29;20533;-95
2022/05/18 06:46:08;;;;;;;13.63;8.55;;;;;;;17.54;72.45;99187.72;4931885;29;20053;-90
2022/05/18 06:48:45;;;;;;;5.50;2.28;;;;;;;17.15;72.94;99186.69;4915078;28;20035;-93
2022/05/18 06:51:20;;;;;;;3.70;2.42;;;;;;;16.89;73.10;99167.59;4941357;29;20581;-96
2022/05/18 06:53:47;;;;;;;4.00;2.17;;;;;;;16.55;71.42;99196.22;4942600;29;20035;-95
2022/05/18 06:56:12;;;;;;;4.97;2.20;;;;;;;16.04;71.23;99210.28;4925423;29;20047;-94
2022/05/18 06:59:10;;;;;;;36.15;23.92;;;;;;;15.91;70.79;99236.38;4923131;29;20027;-94
2022/05/18 07:01:36;;;;;;;2.85;1.20;;;;;;;15.38;71.16;99226.13;4911655;29;20062;-92
2022/05/18 07:04:03;;;;;;;48.90;30.75;;;;;;;15.22;73.34;99225.66;4906572;29;20125;-90
2022/05/18 07:06:34;;;;;;;11.40;4.53;;;;;;;14.95;73.63;99228.06;4924114;28;20057;-89
2022/05/18 07:08:59;;;;;;;6.90;3.08;;;;;;;14.96;72.91;99226.16;5003400;28;20028;-91
2022/05/18 07:11:28;;;;;;;3.13;1.10;;;;;;;14.96;73.05;99245.13;4977696;28;20026;-92
2022/05/18 07:13:54;;;;;;;3.40;2.05;;;;;;;14.93;73.17;99253.88;4972045;28;20117;-91
2022/05/18 07:16:21;;;;;;;4.30;1.40;;;;;;;14.87;73.94;99268.63;4977909;28;20026;-96
2022/05/18 07:18:47;;;;;;;1.45;1.10;;;;;;;14.77;73.61;99264.19;4984338;28;20025;-91
2022/05/18 07:21:19;;;;;;;2.90;1.40;;;;;;;14.51;74.71;99274.66;4983452;28;20036;-95
2022/05/18 07:23:45;;;;;;;4.93;3.47;;;;;;;14.62;74.03;99257.13;4982722;28;20022;-93
2022/05/18 07:26:11;;;;;;;4.90;2.00;;;;;;;14.71;74.36;99285.19;4999018;28;20044;-96
2022/05/18 07:29:00;;;;;;;2.95;1.27;;;;;;;14.29;74.22;99273.38;4985491;28;20030;-96
2022/05/18 07:31:32;;;;;;;2.53;1.08;;;;;;;14.30;73.84;99282.31;4961399;28;20042;-93
2022/05/18 07:34:14;;;;;;;1.58;0.90;;;;;;;14.00;73.45;99284.38;4958725;28;20142;-93
2022/05/18 07:36:43;;;;;;;2.38;1.00;;;;;;;14.09;73.60;99312.41;4984008;28;20117;-96
2022/05/18 07:39:09;;;;;;;5.90;1.83;;;;;;;13.92;73.66;99301.28;4977262;28;20536;-92
2022/05/18 07:42:05;;;;;;;;;;;;;;;;;;;;;
2022/05/18 07:44:34;;;;;;;3.60;1.05;;;;;;;13.79;75.45;99331.78;5069511;22;20073;-94
2022/05/18 07:47:02;;;;;;;2.45;1.13;;;;;;;13.66;76.42;99338.69;5004993;28;20078;-94
2022/05/18 07:49:28;;;;;;;2.28;1.20;;;;;;;13.82;75.04;99372.59;5003742;28;20056;-92
2022/05/18 07:51:54;;;;;;;5.75;1.27;;;;;;;13.62;74.80;99362.03;5004828;28;20033;-93
2022/05/18 07:54:20;;;;;;;3.08;1.70;;;;;;;13.63;76.16;99371.72;4994142;28;20504;-93
2022/05/18 07:56:46;;;;;;;2.25;1.30;;;;;;;13.60;76.59;99385.84;5004697;28;20032;-94
2022/05/18 07:59:22;;;;;;;14.40;11.82;;;;;;;13.43;75.64;99400.63;5008283;28;20009;-96
2022/05/18 08:01:48;;;;;;;5.70;3.13;;;;;;;13.48;76.64;99407.88;5008486;28;20017;-94
2022/05/18 08:04:14;;;;;;;6.20;2.65;;;;;;;13.26;78.42;99397.50;5010838;28;20040;-95
2022/05/18 08:06:40;;;;;;;4.32;1.83;;;;;;;13.08;76.34;99415.28;5007318;28;20046;-93
2022/05/18 08:09:05;;;;;;;4.35;1.98;;;;;;;13.19;77.57;99438.41;5005924;28;20029;-95
2022/05/18 08:16:59;;;;;;;2.25;1.65;;;;;;;13.11;75.96;99449.84;5004085;28;20180;-92
2022/05/18 08:19:25;;;;;;;3.47;1.58;;;;;;;13.15;75.02;99446.28;4960895;28;20042;-93
2022/05/18 08:21:56;;;;;;;7.93;1.40;;;;;;;13.33;75.47;99460.22;4958812;28;20070;-95
2022/05/18 08:24:22;;;;;;;15.40;8.32;;;;;;;13.32;75.17;99472.94;4982880;28;20017;-92
2022/05/18 08:26:47;;;;;;;2.55;1.23;;;;;;;13.14;75.01;99468.22;4977776;28;20044;-89
2022/05/18 08:29:13;;;;;;;1.67;1.10;;;;;;;12.84;76.76;99453.81;4958444;28;20460;-92
2022/05/18 08:31:45;;;;;;;1.70;1.00;;;;;;;12.78;75.94;99481.97;4956404;28;20030;-95
2022/05/18 08:34:11;;;;;;;3.08;1.10;;;;;;;12.97;76.44;99482.13;4969991;28;20472;-93
2022/05/18 08:36:37;;;;;;;9.35;6.00;;;;;;;12.76;76.22;99477.94;4989902;28;20034;-90
2022/05/18 08:39:02;;;;;;;2.63;1.52;;;;;;;12.72;76.51;99469.56;4995441;28;20033;-93
2022/05/18 08:41:35;;;;;;;4.65;1.70;;;;;;;12.80;77.76;99504.09;4976668;28;20480;-89
2022/05/18 08:44:04;;;;;;;5.68;1.60;;;;;;;12.98;75.24;99523.47;4957057;28;20266;-91
2022/05/18 08:46:43;;;;;;;2.13;1.33;;;;;;;12.80;76.59;99531.13;4961176;28;20039;-91
2022/05/18 08:49:50;;;;;;;1.95;1.20;;;;;;;13.07;75.56;99538.00;5016225;28;20030;-90
2022/05/18 08:52:39;;;;;;;3.25;1.50;;;;;;;12.81;75.09;99513.03;4951884;29;20042;-91
2022/05/18 08:55:27;;;;;;;3.75;1.83;;;;;;;13.12;76.33;99555.00;4994109;28;20042;-89
2022/05/18 08:57:53;;;;;;;3.33;1.38;;;;;;;12.97;75.08;99560.50;5002633;28;20044;-90
2022/05/18 09:00:41;;;;;;;6.03;1.80;;;;;;;12.92;76.33;99569.44;4996836;28;20492;-92
2022/05/18 09:03:11;;;;;;;5.72;1.80;;;;;;;12.72;76.84;99574.94;5001245;28;20116;-92
2022/05/18 09:05:42;;;;;;;4.13;1.23;;;;;;;12.56;75.23;99584.22;4984953;28;20029;-91
2022/05/18 09:08:20;;;;;;;2.45;1.35;;;;;;;12.36;75.88;99572.38;4982236;28;20030;-91
2022/05/18 09:10:57;;;;;;;7.03;5.00;;;;;;;12.30;75.99;99584.28;4966413;28;20036;-89
2022/05/18 09:13:23;;;;;;;4.82;2.22;;;;;;;12.06;76.58;99573.31;4983468;28;20488;-94
2022/05/18 09:16:01;;;;;;;4.15;1.42;;;;;;;12.22;73.57;99626.19;4966669;28;20030;-90
2022/05/18 09:18:49;;;;;;;3.33;1.50;;;;;;;11.95;75.52;99620.25;5006562;28;20038;-93
2022/05/18 09:21:32;;;;;;;5.63;2.05;;;;;;;11.83;75.00;99626.72;4999695;28;20452;-93
2022/05/18 09:24:22;;;;;;;5.63;1.75;;;;;;;11.80;74.48;99623.75;4997665;28;20034;-93
2022/05/18 09:26:56;;;;;;;3.72;2.40;;;;;;;11.77;73.91;99632.41;5016251;28;20037;-91
2022/05/18 09:29:35;;;;;;;2.92;1.70;;;;;;;11.60;73.92;99641.56;5001010;28;20033;-89
2022/05/18 09:32:07;;;;;;;4.53;1.60;;;;;;;11.37;73.88;99631.25;4981803;28;20515;-93
2022/05/18 09:34:58;;;;;;;4.30;2.00;;;;;;;11.49;74.74;99654.19;5017685;28;20022;-91
2022/05/18 09:37:40;;;;;;;8.57;4.22;;;;;;;11.58;76.40;99656.38;4998305;28;20033;-91
2022/05/18 09:40:23;;;;;;;5.45;3.20;;;;;;;11.82;75.34;99646.66;5006092;28;20459;-90
2022/05/18 09:43:13;;;;;;;7.63;2.38;;;;;;;11.82;73.47;99652.06;5005378;28;20125;-91
2022/05/18 09:45:41;;;;;;;3.42;2.05;;;;;;;11.64;73.99;99639.94;4994605;28;20077;-91
2022/05/18 09:48:34;;;;;;;8.05;1.70;;;;;;;11.67;73.96;99631.28;5001351;28;20399;-93
2022/05/18 09:51:00;;;;;;;5.25;2.25;;;;;;;11.46;73.79;99641.25;5002261;28;20028;-91
2022/05/18 09:53:28;;;;;;;5.20;2.40;;;;;;;11.73;73.33;99641.00;4985680;28;20030;-88
2022/05/18 09:55:54;;;;;;;4.20;2.30;;;;;;;11.91;74.86;99637.00;4990835;28;20028;-88
2022/05/18 09:58:43;;;;;;;2.95;1.90;;;;;;;12.01;72.23;99660.44;4979894;28;20524;-90
2022/05/18 10:09:43;;;;;;;8.05;2.00;;;;;;;12.48;70.59;99694.44;4983736;28;20100;-89
2022/05/18 10:12:23;;;;;;;4.68;2.50;;;;;;;12.48;71.55;99690.94;4986567;28;20034;-93
2022/05/18 10:14:53;;;;;;;6.10;2.75;;;;;;;12.55;72.09;99704.94;4992773;28;20053;-89
2022/05/18 10:17:23;;;;;;;8.88;3.25;;;;;;;12.45;72.31;99696.84;4994038;28;20099;-92
2022/05/18 10:19:51;;;;;;;5.32;2.47;;;;;;;12.48;73.01;99707.13;4995150;28;20522;-90
2022/05/18 10:22:25;;;;;;;4.90;2.25;;;;;;;12.43;73.42;99743.06;4990130;28;20038;-92
2022/05/18 10:24:56;;;;;;;3.67;1.70;;;;;;;12.09;71.58;99727.38;4978260;28;20108;-89
2022/05/18 10:27:28;;;;;;;5.35;2.50;;;;;;;12.27;73.49;99739.53;4981135;28;20107;-88
2022/05/18 10:30:03;;;;;;;;;;;;;;;12.39;71.45;99749.25;4996247;28;20062;-88
2022/05/18 10:32:29;;;;;;;5.35;2.40;;;;;;;12.16;72.75;99753.31;5008881;28;19913;-88
2022/05/18 10:35:00;;;;;;;3.58;2.22;;;;;;;11.98;74.40;99757.34;4980604;28;20038;-91
2022/05/18 10:37:31;;;;;;;3.92;1.70;;;;;;;12.17;71.65;99766.53;5027079;28;20487;-90
2022/05/18 10:40:12;;;;;;;7.07;2.60;;;;;;;12.16;73.66;99783.84;4981284;28;20093;-91
2022/05/18 10:42:52;;;;;;;7.18;2.08;;;;;;;11.95;73.31;99763.28;4993491;28;20066;-90
2022/05/18 10:45:26;;;;;;;7.68;2.55;;;;;;;11.68;72.62;99793.94;4995828;28;20050;-92
2022/05/18 10:48:11;;;;;;;5.35;2.97;;;;;;;11.49;71.25;99775.53;5014457;28;20030;-91
2022/05/18 10:50:40;;;;;;;4.78;2.15;;;;;;;11.41;71.77;99811.09;5000606;28;20143;-93
2022/05/18 10:53:15;;;;;;;5.78;1.92;;;;;;;11.19;69.97;99813.97;4967106;28;20099;-94
2022/05/18 10:56:00;;;;;;;17.60;2.60;;;;;;;11.15;72.93;99802.09;5002089;28;20034;-91
2022/05/18 10:58:44;;;;;;;18.67;8.93;;;;;;;11.13;71.19;99837.38;5000397;28;20022;-93
2022/05/18 11:01:17;;;;;;;4.95;2.03;;;;;;;11.19;72.75;99849.00;4989662;28;20114;-94
2022/05/18 11:04:05;;;;;;;6.28;1.88;;;;;;;11.10;73.32;99839.78;5012187;28;20084;-93
2022/05/18 11:06:38;;;;;;;8.35;2.60;;;;;;;11.07;70.50;99848.41;5011223;28;20041;-91
2022/05/18 11:09:20;;;;;;;3.80;1.60;;;;;;;11.09;65.57;99857.84;5016439;28;20407;-93
2022/05/18 11:11:52;;;;;;;3.97;1.67;;;;;;;11.02;66.60;99851.88;4984863;28;20033;-89
2022/05/18 11:14:45;;;;;;;6.13;1.98;;;;;;;11.16;67.28;99860.28;4982477;28;20049;-94
2022/05/18 11:17:29;;;;;;;4.65;1.70;;;;;;;11.25;66.38;99880.31;4987744;28;20033;-95
2022/05/18 11:20:16;;;;;;;12.55;6.30;;;;;;;11.21;68.94;99881.91;5001488;28;20424;-91
2022/05/18 11:23:00;;;;;;;5.05;2.28;;;;;;;11.08;64.81;99866.16;4994634;28;20030;-91
2022/05/18 11:25:40;;;;;;;4.32;1.90;;;;;;;11.17;65.89;99880.00;4984462;28;20034;-93
2022/05/18 11:28:33;;;;;;;7.75;1.98;;;;;;;11.08;65.42;99869.69;5002250;28;20122;-95
2022/05/18 11:31:29;;;;;;;5.38;1.52;;;;;;;11.22;67.79;99897.00;5003801;28;20125;-93
2022/05/18 11:34:07;;;;;;;5.35;2.03;;;;;;;10.97;66.60;99880.66;4995093;28;20407;-95
2022/05/18 11:37:09;;;;;;;4.85;2.13;;;;;;;11.08;67.37;99887.72;4995318;28;20030;-88
2022/05/18 11:39:38;;;;;;;5.05;1.73;;;;;;;11.13;67.46;99909.34;4983834;28;20037;-95
2022/05/18 11:42:19;;;;;;;4.07;1.83;;;;;;;11.04;65.60;99884.75;4995969;28;20045;-91
2022/05/18 11:45:05;;;;;;;3.30;2.13;;;;;;;11.18;68.10;99913.94;4978376;28;20074;-93
2022/05/18 11:47:52;;;;;;;4.43;1.90;;;;;;;11.21;66.84;99886.50;5020117;28;20038;-95
2022/05/18 11:50:27;;;;;;;5.38;2.25;;;;;;;11.42;67.95;99904.41;5016651;28;20030;-92
2022/05/18 11:53:11;;;;;;;4.90;2.15;;;;;;;11.50;65.95;99908.50;4994977;28;20092;-95
2022/05/18 11:55:47;;;;;;;4.93;2.28;;;;;;;11.58;68.83;99904.47;5013582;28;20105;-96
2022/05/18 11:58:28;;;;;;;8.57;2.58;;;;;;;11.48;68.79;99876.41;5035058;28;20038;-95
2022/05/18 12:01:14;;;;;;;5.85;2.67;;;;;;;11.56;70.12;99876.97;5002945;28;20033;-94
2022/05/18 12:03:46;;;;;;;5.97;2.50;;;;;;;11.83;68.85;99898.38;5000551;28;20040;-94
2022/05/18 12:06:40;;;;;;;6.40;2.60;;;;;;;11.89;69.08;99889.28;5001247;28;20073;-94
2022/05/18 12:09:38;;;;;;;5.28;2.97;;;;;;;11.77;69.67;99902.97;4980720;28;20042;-93
2022/05/18 12:12:04;;;;;;;5.32;2.78;;;;;;;11.74;70.00;99895.41;4995954;28;20030;-92
2022/05/18 12:15:03;;;;;;;4.00;2.63;;;;;;;11.90;70.25;99907.91;4995628;28;20030;-91
2022/05/18 12:17:47;;;;;;;4.90;2.58;;;;;;;11.93;66.23;99904.69;4997865;28;20037;-93
2022/05/18 12:20:31;;;;;;;4.85;2.20;;;;;;;11.93;67.90;99890.38;4983454;28;20014;-92
2022/05/18 12:22:59;;;;;;;10.93;3.10;;;;;;;11.86;68.24;99893.28;5015667;28;20430;-90
2022/05/18 12:25:26;;;;;;;6.72;2.22;;;;;;;11.71;63.74;99917.50;4996317;28;20484;-91
2022/05/18 12:27:56;;;;;;;4.15;1.90;;;;;;;11.86;64.14;99917.56;4999255;28;20101;-92
2022/05/18 12:30:28;;;;;;;4.20;2.10;;;;;;;11.92;65.66;99907.66;5015833;28;20036;-91